Time;durP1;ratioP1;P1;durP2;ratioP2;P2;SDS_P1;SDS_P2;PMS_P1;PMS_P2;Temp;Humidity;BMP_temperature;BMP_pressure;BME280_temperature;BME280_humidity;BME280_pressure;Samples;Min_cycle;Max_cycle;Signal;HPM_P1;HPM_P2
2022/10/11 00:00:55;;;;;;;30.17;8.88;;;;;;;;;;5032704;28;20424;-60
2022/10/11 00:03:20;;;;;;;47.30;8.17;;;;;;;;;;5030962;28;20029;-60
2022/10/11 00:05:46;;;;;;;39.35;8.40;;;;;;;;;;5033189;28;20025;-60
2022/10/11 00:08:11;;;;;;;25.80;6.37;;;;;;;;;;5030984;28;20036;-60
2022/10/11 00:10:37;;;;;;;27.25;8.02;;;;;;;;;;5032689;28;20049;-59
2022/10/11 00:13:02;;;;;;;18.73;9.48;;;;;;;;;;5031403;28;20061;-59
2022/10/11 00:15:28;;;;;;;20.27;6.93;;;;;;;;;;5031838;28;20128;-60
2022/10/11 00:17:53;;;;;;;87.20;8.43;;;;;;;;;;5031057;28;20038;-59
2022/10/11 00:20:18;;;;;;;118.97;11.98;;;;;;;;;;5032377;28;20506;-59
2022/10/11 00:22:43;;;;;;;22.83;6.13;;;;;;;;;;5030860;28;20041;-59
2022/10/11 00:25:09;;;;;;;9.38;5.60;;;;;;;;;;5032074;28;20455;-59
2022/10/11 00:27:34;;;;;;;20.45;6.72;;;;;;;;;;5031009;28;20631;-59
2022/10/11 00:30:00;;;;;;;62.63;8.82;;;;;;;;;;5032199;28;20025;-59
2022/10/11 00:32:25;;;;;;;172.32;14.80;;;;;;;;;;5030529;28;20053;-59
2022/10/11 00:34:50;;;;;;;58.72;6.55;;;;;;;;;;5031965;28;20029;-59
2022/10/11 00:37:16;;;;;;;124.40;10.70;;;;;;;;;;5032040;28;20048;-59
2022/10/11 00:39:41;;;;;;;86.90;11.20;;;;;;;;;;5030897;28;20121;-60
2022/10/11 00:42:13;;;;;;;17.63;7.50;;;;;;;;;;5031649;28;20021;-60
2022/10/11 00:44:38;;;;;;;9.55;5.03;;;;;;;;;;5030317;28;20448;-60
2022/10/11 00:47:07;;;;;;;15.75;6.47;;;;;;;;;;5032038;28;20020;-60
2022/10/11 00:49:37;;;;;;;15.95;6.80;;;;;;;;;;5030777;28;20120;-60
2022/10/11 00:52:05;;;;;;;306.20;26.88;;;;;;;;;;5031401;28;20044;-59
2022/10/11 00:54:32;;;;;;;114.47;8.93;;;;;;;;;;5029985;28;20068;-60
2022/10/11 00:57:01;;;;;;;18.67;6.28;;;;;;;;;;5032450;28;20417;-60
2022/10/11 00:59:29;;;;;;;11.82;5.90;;;;;;;;;;5030050;28;20030;-60
2022/10/11 01:01:55;;;;;;;17.52;6.70;;;;;;;;;;5031486;28;20018;-60
2022/10/11 01:04:20;;;;;;;13.95;5.25;;;;;;;;;;5030285;28;20037;-60
2022/10/11 01:06:45;;;;;;;17.75;6.18;;;;;;;;;;5031169;28;20022;-60
2022/10/11 01:09:11;;;;;;;22.17;6.72;;;;;;;;;;5030109;28;20037;-60
2022/10/11 01:11:38;;;;;;;45.83;9.13;;;;;;;;;;5031676;28;20041;-59
2022/10/11 01:14:06;;;;;;;16.00;6.68;;;;;;;;;;5029600;28;20038;-61
2022/10/11 01:16:36;;;;;;;11.57;4.28;;;;;;;;;;5031315;28;20030;-61
2022/10/11 01:19:13;;;;;;;139.90;10.65;;;;;;;;;;5030190;28;20033;-61
2022/10/11 01:21:41;;;;;;;40.03;3.90;;;;;;;;;;5031033;28;20175;-61
2022/10/11 01:24:06;;;;;;;23.07;3.60;;;;;;;;;;5029733;28;20038;-61
2022/10/11 01:26:55;;;;;;;108.43;11.50;;;;;;;;;;5031456;28;20105;-61
2022/10/11 01:29:42;;;;;;;67.53;6.10;;;;;;;;;;5029487;28;20037;-61
2022/10/11 01:32:14;;;;;;;104.50;8.65;;;;;;;;;;5029032;28;20443;-61
2022/10/11 01:34:39;;;;;;;32.92;3.33;;;;;;;;;;5031227;28;20025;-61
2022/10/11 01:37:18;;;;;;;14.25;3.00;;;;;;;;;;5029625;28;20025;-62
2022/10/11 01:39:49;;;;;;;8.27;3.65;;;;;;;;;;5031097;28;20033;-61
2022/10/11 01:42:16;;;;;;;5.63;4.28;;;;;;;;;;5029437;28;20025;-61
2022/10/11 01:44:44;;;;;;;95.85;8.45;;;;;;;;;;5030928;28;20076;-61
2022/10/11 01:47:09;;;;;;;21.65;3.00;;;;;;;;;;5029547;28;20057;-61
2022/10/11 01:49:34;;;;;;;36.08;3.65;;;;;;;;;;5031188;28;20056;-61
2022/10/11 01:52:02;;;;;;;160.43;9.23;;;;;;;;;;5029190;28;20049;-61
2022/10/11 01:54:39;;;;;;;10.45;2.72;;;;;;;;;;5030711;28;20053;-61
2022/10/11 01:57:23;;;;;;;8.95;4.05;;;;;;;;;;5029438;28;20037;-61
2022/10/11 01:59:56;;;;;;;59.70;6.07;;;;;;;;;;5030487;28;20021;-61
2022/10/11 02:02:21;;;;;;;183.15;12.88;;;;;;;;;;5029320;28;20033;-61
2022/10/11 02:05:05;;;;;;;144.02;7.40;;;;;;;;;;5030920;28;20022;-61
2022/10/11 02:07:36;;;;;;;117.63;8.20;;;;;;;;;;5028686;28;20045;-60
2022/10/11 02:10:25;;;;;;;144.70;11.25;;;;;;;;;;5031021;28;20024;-59
2022/10/11 02:13:00;;;;;;;65.43;6.20;;;;;;;;;;5001125;28;20041;-59
2022/10/11 02:15:28;;;;;;;213.88;13.80;;;;;;;;;;5030239;28;20484;-59
2022/10/11 02:17:55;;;;;;;34.17;5.63;;;;;;;;;;5029562;28;20036;-59
2022/10/11 02:20:21;;;;;;;144.13;11.32;;;;;;;;;;5030427;28;20159;-59
2022/10/11 02:22:48;;;;;;;176.93;13.32;;;;;;;;;;5028978;28;20041;-59
2022/10/11 02:25:16;;;;;;;148.25;13.23;;;;;;;;;;5030756;28;20021;-59
2022/10/11 02:27:43;;;;;;;142.77;10.95;;;;;;;;;;5029291;28;20489;-59
2022/10/11 02:30:08;;;;;;;180.35;15.35;;;;;;;;;;5030310;28;20025;-59
2022/10/11 02:32:35;;;;;;;64.72;9.90;;;;;;;;;;5029223;28;20426;-59
2022/10/11 02:35:01;;;;;;;135.35;14.48;;;;;;;;;;5030669;28;20025;-59
2022/10/11 02:37:26;;;;;;;130.35;11.40;;;;;;;;;;5028317;28;20546;-59
2022/10/11 02:39:54;;;;;;;22.73;5.43;;;;;;;;;;5030660;28;20021;-59
2022/10/11 02:42:25;;;;;;;89.65;8.73;;;;;;;;;;5029071;28;20034;-59
2022/10/11 02:44:58;;;;;;;18.92;7.45;;;;;;;;;;5029991;28;20022;-59
2022/10/11 02:47:23;;;;;;;13.10;6.05;;;;;;;;;;5029128;28;20037;-59
2022/10/11 02:49:49;;;;;;;8.15;5.20;;;;;;;;;;5030630;28;20029;-59
2022/10/11 02:52:14;;;;;;;16.42;6.47;;;;;;;;;;5028331;28;20041;-59
2022/10/11 02:54:39;;;;;;;16.15;5.68;;;;;;;;;;5030393;28;20037;-60
2022/10/11 02:57:04;;;;;;;17.65;7.20;;;;;;;;;;5028899;28;20029;-59
2022/10/11 02:59:29;;;;;;;82.97;9.63;;;;;;;;;;5030164;28;20546;-59
2022/10/11 03:01:54;;;;;;;296.90;17.17;;;;;;;;;;5028326;28;20041;-59
2022/10/11 03:04:20;;;;;;;314.63;17.13;;;;;;;;;;5030195;28;20076;-60
2022/10/11 03:06:45;;;;;;;189.27;10.70;;;;;;;;;;5028752;28;20044;-62
2022/10/11 03:09:10;;;;;;;27.15;5.22;;;;;;;;;;5030227;28;20021;-59
2022/10/11 03:11:35;;;;;;;11.70;5.97;;;;;;;;;;5031676;28;20058;-59
2022/10/11 03:14:00;;;;;;;15.17;9.27;;;;;;;;;;5033681;28;20056;-59
2022/10/11 03:16:25;;;;;;;13.85;7.03;;;;;;;;;;5033315;28;20451;-59
2022/10/11 03:18:50;;;;;;;293.67;20.10;;;;;;;;;;5032502;28;20036;-59
2022/10/11 03:21:16;;;;;;;227.05;16.25;;;;;;;;;;5033193;28;20028;-59
2022/10/11 03:23:41;;;;;;;235.67;16.20;;;;;;;;;;5032308;28;20515;-58
2022/10/11 03:26:06;;;;;;;23.58;6.10;;;;;;;;;;5033228;28;20067;-62
2022/10/11 03:28:31;;;;;;;9.38;6.65;;;;;;;;;;5031724;28;20041;-61
2022/10/11 03:30:57;;;;;;;23.43;9.63;;;;;;;;;;5033495;28;20023;-62
2022/10/11 03:33:22;;;;;;;13.73;8.88;;;;;;;;;;5031868;28;20132;-62
2022/10/11 03:35:47;;;;;;;176.33;15.07;;;;;;;;;;5033087;28;20021;-62
2022/10/11 03:38:14;;;;;;;144.32;11.73;;;;;;;;;;5031832;28;20455;-62
2022/10/11 03:40:40;;;;;;;173.70;16.25;;;;;;;;;;5033200;28;20120;-62
2022/10/11 03:43:05;;;;;;;100.85;10.23;;;;;;;;;;5031603;28;20120;-62
2022/10/11 03:45:30;;;;;;;7.13;6.53;;;;;;;;;;5032946;28;20025;-62
2022/10/11 03:47:55;;;;;;;11.40;7.88;;;;;;;;;;5031805;28;20033;-62
2022/10/11 03:50:21;;;;;;;23.15;8.75;;;;;;;;;;5032481;28;20113;-62
2022/10/11 03:52:46;;;;;;;74.85;9.88;;;;;;;;;;5031985;28;20046;-61
2022/10/11 03:55:11;;;;;;;79.40;9.50;;;;;;;;;;5032613;28;20029;-61
2022/10/11 03:57:36;;;;;;;23.80;6.07;;;;;;;;;;5031085;28;20033;-61
2022/10/11 04:00:02;;;;;;;8.60;5.35;;;;;;;;;;5033146;28;20559;-61
2022/10/11 04:02:27;;;;;;;19.25;6.57;;;;;;;;;;5031172;28;20117;-59
2022/10/11 04:04:52;;;;;;;39.97;7.53;;;;;;;;;;5032429;28;20036;-60
2022/10/11 04:07:17;;;;;;;72.73;11.07;;;;;;;;;;5031309;28;21000;-59
2022/10/11 04:09:43;;;;;;;354.83;29.37;;;;;;;;;;5032710;28;20424;-59
2022/10/11 04:12:08;;;;;;;563.45;42.63;;;;;;;;;;5030496;28;20468;-59
2022/10/11 04:14:33;;;;;;;76.47;7.82;;;;;;;;;;5032762;28;20024;-59
2022/10/11 04:16:58;;;;;;;9.70;7.15;;;;;;;;;;5031574;28;20507;-59
2022/10/11 04:19:23;;;;;;;20.73;8.17;;;;;;;;;;5032173;28;20619;-59
2022/10/11 04:21:48;;;;;;;8.50;7.70;;;;;;;;;;5030707;28;20037;-59
2022/10/11 04:24:14;;;;;;;16.52;9.00;;;;;;;;;;5032068;28;20436;-59
2022/10/11 04:26:39;;;;;;;118.38;15.02;;;;;;;;;;5030637;28;20029;-59
2022/10/11 04:29:04;;;;;;;23.88;9.30;;;;;;;;;;5032548;28;20070;-59
2022/10/11 04:31:30;;;;;;;30.50;11.75;;;;;;;;;;5030573;28;20106;-58
2022/10/11 04:33:56;;;;;;;43.17;11.30;;;;;;;;;;5031785;28;20045;-59
2022/10/11 04:36:21;;;;;;;125.22;11.82;;;;;;;;;;5030021;28;20388;-59
2022/10/11 04:38:46;;;;;;;113.28;14.68;;;;;;;;;;5035252;28;20476;-59
2022/10/11 04:41:12;;;;;;;15.80;8.13;;;;;;;;;;5040383;28;20434;-58
2022/10/11 04:43:37;;;;;;;22.38;10.38;;;;;;;;;;5029960;28;20045;-59
2022/10/11 04:46:03;;;;;;;22.70;10.63;;;;;;;;;;5036789;28;20023;-58
2022/10/11 04:48:28;;;;;;;118.28;9.60;;;;;;;;;;5032026;28;20135;-59
2022/10/11 04:50:53;;;;;;;44.57;7.63;;;;;;;;;;5030525;28;20053;-59
2022/10/11 04:53:19;;;;;;;7.22;6.47;;;;;;;;;;5029056;28;20630;-59
2022/10/11 04:55:44;;;;;;;8.63;7.70;;;;;;;;;;5030281;28;20017;-59
2022/10/11 04:58:09;;;;;;;21.35;10.18;;;;;;;;;;5028152;28;20037;-58
2022/10/11 05:00:34;;;;;;;27.98;7.45;;;;;;;;;;5030532;28;20025;-59
2022/10/11 05:02:59;;;;;;;54.80;5.90;;;;;;;;;;5029159;28;20396;-59
2022/10/11 05:05:24;;;;;;;60.55;8.30;;;;;;;;;;5030925;28;20382;-59
2022/10/11 05:07:50;;;;;;;45.72;9.80;;;;;;;;;;5030278;28;20073;-59
2022/10/11 05:10:15;;;;;;;14.65;8.70;;;;;;;;;;5031518;28;20029;-59
2022/10/11 05:12:40;;;;;;;15.43;8.88;;;;;;;;;;5030169;28;20045;-59
2022/10/11 05:15:06;;;;;;;28.83;7.47;;;;;;;;;;5031239;28;20018;-59
2022/10/11 05:17:31;;;;;;;14.02;10.20;;;;;;;;;;5029941;28;20129;-59
2022/10/11 05:19:56;;;;;;;9.93;8.93;;;;;;;;;;5031348;28;20021;-59
2022/10/11 05:22:21;;;;;;;17.43;10.93;;;;;;;;;;5029363;28;20456;-58
2022/10/11 05:24:46;;;;;;;14.97;10.10;;;;;;;;;;5031407;28;20412;-59
2022/10/11 05:27:11;;;;;;;31.05;10.60;;;;;;;;;;5029483;28;20463;-59
2022/10/11 05:29:37;;;;;;;60.97;10.37;;;;;;;;;;5028062;28;20017;-59
2022/10/11 05:32:02;;;;;;;33.08;10.02;;;;;;;;;;5036544;28;20056;-59
2022/10/11 05:34:27;;;;;;;24.57;7.83;;;;;;;;;;5030094;28;20033;-59
2022/10/11 05:36:52;;;;;;;19.73;11.97;;;;;;;;;;5029533;28;20518;-59
2022/10/11 05:39:17;;;;;;;21.38;11.05;;;;;;;;;;5030788;28;20816;-59
2022/10/11 05:41:42;;;;;;;11.27;9.13;;;;;;;;;;5031286;28;20056;-59
2022/10/11 05:44:07;;;;;;;93.17;12.30;;;;;;;;;;5034556;28;20021;-59
2022/10/11 05:46:33;;;;;;;134.90;12.93;;;;;;;;;;5043772;28;20100;-59
2022/10/11 05:48:58;;;;;;;45.25;7.97;;;;;;;;;;5030683;28;20429;-59
2022/10/11 05:51:23;;;;;;;11.77;6.88;;;;;;;;;;5034466;28;20052;-59
2022/10/11 05:53:48;;;;;;;10.73;8.30;;;;;;;;;;5034070;28;20107;-59
2022/10/11 05:56:18;;;;;;;10.67;9.60;;;;;;;;;;5031111;28;20025;-59
2022/10/11 05:58:43;;;;;;;41.40;10.85;;;;;;;;;;5049473;28;20614;-59
2022/10/11 06:01:15;;;;;;;80.57;9.57;;;;;;;;;;5048382;28;20537;-59
2022/10/11 06:03:40;;;;;;;197.68;16.08;;;;;;;;;;5027586;28;20040;-59
2022/10/11 06:06:05;;;;;;;307.25;24.05;;;;;;;;;;5034454;28;20384;-59
2022/10/11 06:08:30;;;;;;;612.10;51.83;;;;;;;;;;5043955;28;20037;-59
2022/10/11 06:10:55;;;;;;;222.90;20.58;;;;;;;;;;5050547;28;20833;-59
2022/10/11 06:13:20;;;;;;;207.63;17.48;;;;;;;;;;5040291;28;20683;-59
2022/10/11 06:15:46;;;;;;;163.67;14.13;;;;;;;;;;5030712;28;20104;-58
2022/10/11 06:18:11;;;;;;;361.60;28.20;;;;;;;;;;5028797;28;20468;-59
2022/10/11 06:20:36;;;;;;;209.68;23.38;;;;;;;;;;5032104;28;20020;-59
2022/10/11 06:23:01;;;;;;;16.20;8.27;;;;;;;;;;5033127;28;20396;-59
2022/10/11 06:25:26;;;;;;;48.70;11.23;;;;;;;;;;5045331;28;20535;-59
2022/10/11 06:27:51;;;;;;;124.17;18.50;;;;;;;;;;5031107;28;20465;-60
2022/10/11 06:30:17;;;;;;;38.20;11.40;;;;;;;;;;5049898;28;20029;-59
2022/10/11 06:32:42;;;;;;;149.77;18.55;;;;;;;;;;5047214;28;20627;-59
2022/10/11 06:35:07;;;;;;;200.02;18.08;;;;;;;;;;5041520;28;20063;-59
2022/10/11 06:37:32;;;;;;;30.35;11.38;;;;;;;;;;5045828;28;20040;-59
2022/10/11 06:39:57;;;;;;;25.33;13.13;;;;;;;;;;5048325;28;20032;-60
2022/10/11 06:42:23;;;;;;;23.03;15.13;;;;;;;;;;5031638;28;20053;-60
2022/10/11 06:44:48;;;;;;;31.93;18.13;;;;;;;;;;5036438;28;20457;-59
2022/10/11 06:47:13;;;;;;;33.25;20.33;;;;;;;;;;5033840;28;20037;-60
2022/10/11 06:49:38;;;;;;;47.00;26.02;;;;;;;;;;5035723;28;20029;-59
2022/10/11 06:52:03;;;;;;;29.15;23.58;;;;;;;;;;5043194;28;20557;-59
2022/10/11 06:54:29;;;;;;;39.70;23.13;;;;;;;;;;5048407;28;20350;-59
2022/10/11 06:56:54;;;;;;;34.38;24.88;;;;;;;;;;5036841;28;20128;-59
2022/10/11 06:59:19;;;;;;;30.95;23.38;;;;;;;;;;5033973;28;20037;-58
2022/10/11 07:01:44;;;;;;;44.47;27.10;;;;;;;;;;5041007;28;20043;-59
2022/10/11 07:04:09;;;;;;;31.17;23.10;;;;;;;;;;5036304;28;20460;-59
2022/10/11 07:06:36;;;;;;;36.83;24.13;;;;;;;;;;5034258;28;20484;-58
2022/10/11 07:09:01;;;;;;;50.70;25.67;;;;;;;;;;5033796;28;20020;-59
2022/10/11 07:11:27;;;;;;;32.85;21.75;;;;;;;;;;5039780;28;20029;-59
2022/10/11 07:13:53;;;;;;;35.28;23.42;;;;;;;;;;5052106;28;20033;-59
2022/10/11 07:16:19;;;;;;;40.63;25.20;;;;;;;;;;5053732;28;20021;-59
2022/10/11 07:18:44;;;;;;;45.78;24.75;;;;;;;;;;5051939;28;20033;-59
2022/10/11 07:21:10;;;;;;;32.53;23.50;;;;;;;;;;5047398;28;20028;-59
2022/10/11 07:23:36;;;;;;;50.38;23.33;;;;;;;;;;5033402;28;20103;-60
2022/10/11 07:26:01;;;;;;;27.70;21.30;;;;;;;;;;5033618;28;20049;-60
2022/10/11 07:28:29;;;;;;;30.58;23.17;;;;;;;;;;5032079;28;20061;-60
2022/10/11 07:30:54;;;;;;;24.20;18.80;;;;;;;;;;5031332;28;20029;-59
2022/10/11 07:33:19;;;;;;;26.60;18.50;;;;;;;;;;5034772;28;20150;-59
2022/10/11 07:35:44;;;;;;;36.97;18.40;;;;;;;;;;5044319;28;21009;-59
2022/10/11 07:38:11;;;;;;;33.30;19.75;;;;;;;;;;5031253;28;20456;-59
2022/10/11 07:40:43;;;;;;;30.83;17.08;;;;;;;;;;5043195;28;20028;-59
2022/10/11 07:43:09;;;;;;;23.98;14.10;;;;;;;;;;5041359;28;20162;-59
2022/10/11 07:45:41;;;;;;;18.15;13.88;;;;;;;;;;5038541;28;20071;-59
2022/10/11 07:48:06;;;;;;;19.08;11.55;;;;;;;;;;5040893;28;20053;-59
2022/10/11 07:50:31;;;;;;;24.67;14.23;;;;;;;;;;5032790;28;20025;-59
2022/10/11 07:52:57;;;;;;;25.88;13.45;;;;;;;;;;5031746;28;20484;-59
2022/10/11 07:55:22;;;;;;;21.85;11.15;;;;;;;;;;5032240;28;20095;-59
2022/10/11 07:57:47;;;;;;;24.88;11.23;;;;;;;;;;5031192;28;20036;-59
2022/10/11 08:00:12;;;;;;;16.88;9.93;;;;;;;;;;5032574;28;20064;-59
2022/10/11 08:02:37;;;;;;;27.83;12.40;;;;;;;;;;5031176;28;20033;-58
2022/10/11 08:05:03;;;;;;;28.35;11.35;;;;;;;;;;5032894;28;20045;-59
2022/10/11 08:07:28;;;;;;;26.23;11.95;;;;;;;;;;5031037;28;20447;-59
2022/10/11 08:09:53;;;;;;;12.93;9.75;;;;;;;;;;5031931;28;20469;-59
2022/10/11 08:12:18;;;;;;;15.27;9.30;;;;;;;;;;5031310;28;20046;-59
2022/10/11 08:14:44;;;;;;;14.93;9.18;;;;;;;;;;5032789;28;20425;-58
2022/10/11 08:17:09;;;;;;;18.45;9.95;;;;;;;;;;5030203;28;20049;-59
2022/10/11 08:19:34;;;;;;;20.52;8.50;;;;;;;;;;5032504;28;20028;-59
2022/10/11 08:21:59;;;;;;;19.55;10.85;;;;;;;;;;5030433;28;20038;-59
2022/10/11 08:24:24;;;;;;;12.43;7.75;;;;;;;;;;5031735;28;20021;-58
2022/10/11 08:26:50;;;;;;;15.88;9.88;;;;;;;;;;5030548;28;20033;-58
2022/10/11 08:29:15;;;;;;;18.90;9.75;;;;;;;;;;5032329;28;20068;-59
2022/10/11 08:31:40;;;;;;;13.63;8.10;;;;;;;;;;5030290;28;20385;-58
2022/10/11 08:34:05;;;;;;;12.32;7.97;;;;;;;;;;5031955;28;20125;-58
2022/10/11 08:36:31;;;;;;;19.40;8.70;;;;;;;;;;5030399;28;20029;-58
2022/10/11 08:38:56;;;;;;;16.35;11.07;;;;;;;;;;5031724;28;20006;-59
2022/10/11 08:41:24;;;;;;;19.80;8.80;;;;;;;;;;5031811;28;20498;-60
2022/10/11 08:43:55;;;;;;;13.57;10.70;;;;;;;;;;5030299;28;20424;-59
2022/10/11 08:46:22;;;;;;;14.63;9.43;;;;;;;;;;5031523;28;20104;-59
2022/10/11 08:48:48;;;;;;;17.08;9.43;;;;;;;;;;5030369;28;20061;-59
2022/10/11 08:51:22;;;;;;;13.35;8.02;;;;;;;;;;5031222;28;20112;-59
2022/10/11 08:53:51;;;;;;;16.90;9.65;;;;;;;;;;5030117;28;20034;-59
2022/10/11 08:56:17;;;;;;;16.65;8.27;;;;;;;;;;5031393;28;20029;-59
2022/10/11 08:58:43;;;;;;;16.45;10.10;;;;;;;;;;5030636;28;20025;-59
2022/10/11 09:01:13;;;;;;;11.75;6.95;;;;;;;;;;5031403;28;20032;-59
2022/10/11 09:03:40;;;;;;;11.35;7.32;;;;;;;;;;5031754;28;20500;-59
2022/10/11 09:06:20;;;;;;;12.73;7.72;;;;;;;;;;5045231;28;20075;-59
2022/10/11 09:08:51;;;;;;;15.00;7.07;;;;;;;;;;5030129;28;20451;-59
2022/10/11 09:11:35;;;;;;;15.38;8.38;;;;;;;;;;5032634;28;20029;-59
2022/10/11 09:14:18;;;;;;;11.95;6.07;;;;;;;;;;5030618;28;20052;-59
2022/10/11 09:16:50;;;;;;;12.52;6.70;;;;;;;;;;5030980;28;20033;-59
2022/10/11 09:19:17;;;;;;;14.05;7.30;;;;;;;;;;5035174;28;20096;-59
2022/10/11 09:21:52;;;;;;;15.52;6.13;;;;;;;;;;5034455;28;20017;-59
2022/10/11 09:24:26;;;;;;;14.55;7.65;;;;;;;;;;5011415;28;20014;-59
2022/10/11 09:27:09;;;;;;;11.98;5.45;;;;;;;;;;5010740;28;20036;-59
2022/10/11 09:29:50;;;;;;;10.20;5.43;;;;;;;;;;5011443;28;20465;-59
2022/10/11 09:32:16;;;;;;;14.50;6.10;;;;;;;;;;5026625;28;20080;-59
2022/10/11 09:34:42;;;;;;;18.13;5.32;;;;;;;;;;5032562;28;20376;-59
2022/10/11 09:37:26;;;;;;;12.18;5.72;;;;;;;;;;5022325;28;20508;-60
2022/10/11 09:40:00;;;;;;;10.57;6.10;;;;;;;;;;5033031;28;20382;-59
2022/10/11 09:42:26;;;;;;;12.93;5.72;;;;;;;;;;5030602;28;20033;-59
2022/10/11 09:44:51;;;;;;;24.00;8.02;;;;;;;;;;5031855;28;20024;-59
2022/10/11 09:47:19;;;;;;;9.25;4.88;;;;;;;;;;5039000;28;20061;-60
2022/10/11 09:49:49;;;;;;;18.37;6.70;;;;;;;;;;5043143;28;20372;-59
2022/10/11 09:52:15;;;;;;;11.05;5.38;;;;;;;;;;5027896;28;20037;-60
2022/10/11 09:54:52;;;;;;;11.90;4.68;;;;;;;;;;5030947;28;20014;-59
2022/10/11 09:57:22;;;;;;;14.55;6.65;;;;;;;;;;5037236;28;20034;-59
2022/10/11 09:59:59;;;;;;;14.43;5.68;;;;;;;;;;5030911;28;20052;-59
2022/10/11 10:02:25;;;;;;;13.25;5.45;;;;;;;;;;5037008;28;20404;-59
2022/10/11 10:04:59;;;;;;;8.10;4.18;;;;;;;;;;5040765;28;20009;-59
2022/10/11 10:07:25;;;;;;;10.10;3.95;;;;;;;;;;5048451;28;20069;-60
2022/10/11 10:09:51;;;;;;;9.43;4.03;;;;;;;;;;5037512;28;20064;-59
2022/10/11 10:12:25;;;;;;;11.00;3.72;;;;;;;;;;5029014;28;20038;-59
2022/10/11 10:14:59;;;;;;;15.10;4.15;;;;;;;;;;5030491;28;20025;-59
2022/10/11 10:17:24;;;;;;;9.93;3.10;;;;;;;;;;5028952;28;20073;-59
2022/10/11 10:19:51;;;;;;;19.55;5.20;;;;;;;;;;5029425;28;20037;-59
2022/10/11 10:22:18;;;;;;;11.32;3.88;;;;;;;;;;5025196;28;20522;-59
2022/10/11 10:24:44;;;;;;;12.90;5.75;;;;;;;;;;5034871;28;20376;-59
2022/10/11 10:27:09;;;;;;;10.27;3.63;;;;;;;;;;5032656;28;20107;-59
2022/10/11 10:29:34;;;;;;;14.23;3.20;;;;;;;;;;5034392;28;20018;-60
2022/10/11 10:32:07;;;;;;;8.27;4.28;;;;;;;;;;5032843;28;20049;-60
2022/10/11 10:34:34;;;;;;;20.55;5.10;;;;;;;;;;5034518;28;20006;-59
2022/10/11 10:37:02;;;;;;;20.60;5.50;;;;;;;;;;5032191;28;20087;-59
2022/10/11 10:39:27;;;;;;;;;;;;;;;;;;5035144;28;20028;-60
2022/10/11 10:41:52;;;;;;;19.92;4.50;;;;;;;;;;5032832;28;19913;-59
2022/10/11 10:44:18;;;;;;;12.57;4.40;;;;;;;;;;5033995;28;20080;-59
2022/10/11 10:46:56;;;;;;;14.07;4.85;;;;;;;;;;5033058;28;20574;-59
2022/10/11 10:49:21;;;;;;;;;;;;;;;;;;5034399;28;20092;-59
2022/10/11 10:51:49;;;;;;;5.88;3.05;;;;;;;;;;5032692;28;20103;-59
2022/10/11 10:54:29;;;;;;;12.23;3.78;;;;;;;;;;5033969;28;20018;-59
2022/10/11 10:56:56;;;;;;;13.27;3.03;;;;;;;;;;5032788;28;20037;-60
2022/10/11 10:59:24;;;;;;;13.55;4.22;;;;;;;;;;5033541;28;20025;-59
2022/10/11 11:02:07;;;;;;;8.68;2.92;;;;;;;;;;5032726;28;20105;-60
2022/10/11 11:04:33;;;;;;;13.88;3.95;;;;;;;;;;5034443;28;20017;-60
2022/10/11 11:07:03;;;;;;;13.95;4.53;;;;;;;;;;5032581;28;20036;-60
2022/10/11 11:09:34;;;;;;;17.35;4.53;;;;;;;;;;5034200;28;20022;-59
2022/10/11 11:12:02;;;;;;;14.13;4.18;;;;;;;;;;5032615;28;20121;-60
2022/10/11 11:14:27;;;;;;;8.75;3.03;;;;;;;;;;5033569;28;20171;-60
2022/10/11 11:17:05;;;;;;;15.40;5.53;;;;;;;;;;5032300;28;20120;-60
2022/10/11 11:19:48;;;;;;;11.73;3.42;;;;;;;;;;5033685;28;20037;-59
2022/10/11 11:22:18;;;;;;;12.13;4.43;;;;;;;;;;5031713;28;20042;-59
2022/10/11 11:25:12;;;;;;;17.55;4.45;;;;;;;;;;5033817;28;20049;-59
2022/10/11 11:27:49;;;;;;;10.57;4.50;;;;;;;;;;5022881;28;20041;-59
2022/10/11 11:30:33;;;;;;;7.88;4.30;;;;;;;;;;5032353;28;20469;-59
2022/10/11 11:33:06;;;;;;;9.48;3.85;;;;;;;;;;5031922;28;20119;-59
2022/10/11 11:35:36;;;;;;;13.45;4.43;;;;;;;;;;5033461;28;20021;-59
2022/10/11 11:38:08;;;;;;;15.27;4.40;;;;;;;;;;5032113;28;20034;-59
2022/10/11 11:40:40;;;;;;;7.13;2.47;;;;;;;;;;5033090;28;20018;-60
2022/10/11 11:43:19;;;;;;;12.27;3.75;;;;;;;;;;5031420;28;20037;-60
2022/10/11 11:45:54;;;;;;;7.97;2.72;;;;;;;;;;5033599;28;20417;-60
2022/10/11 11:48:26;;;;;;;12.57;2.83;;;;;;;;;;5031475;28;20045;-60
2022/10/11 11:50:57;;;;;;;23.50;6.78;;;;;;;;;;5032859;28;20025;-60
2022/10/11 11:53:30;;;;;;;7.53;2.92;;;;;;;;;;5031238;28;20048;-59
2022/10/11 11:55:55;;;;;;;11.27;4.03;;;;;;;;;;5033010;28;20384;-59
2022/10/11 11:58:24;;;;;;;13.32;3.67;;;;;;;;;;5030914;28;20033;-59
2022/10/11 12:01:01;;;;;;;14.35;3.28;;;;;;;;;;5033185;28;20009;-59
2022/10/11 12:03:30;;;;;;;13.13;4.00;;;;;;;;;;5030306;28;20040;-60
2022/10/11 12:06:16;;;;;;;7.35;2.90;;;;;;;;;;5028470;28;20029;-59
2022/10/11 12:09:02;;;;;;;11.77;3.88;;;;;;;;;;5037276;28;20487;-59
2022/10/11 12:11:36;;;;;;;14.90;5.90;;;;;;;;;;5037565;28;20041;-59
2022/10/11 12:14:13;;;;;;;11.25;3.85;;;;;;;;;;5021703;28;20032;-59
2022/10/11 12:16:58;;;;;;;9.48;3.28;;;;;;;;;;5032884;28;20017;-60
2022/10/11 12:19:23;;;;;;;11.43;3.75;;;;;;;;;;5030553;28;20109;-60
2022/10/11 12:22:08;;;;;;;13.77;5.15;;;;;;;;;;5030954;28;20116;-59
2022/10/11 12:24:53;;;;;;;11.80;4.00;;;;;;;;;;5031895;28;20072;-60
2022/10/11 12:27:36;;;;;;;12.43;3.58;;;;;;;;;;5030736;28;20037;-60
2022/10/11 12:30:02;;;;;;;13.75;4.57;;;;;;;;;;5032237;28;20384;-59
2022/10/11 12:32:27;;;;;;;14.95;3.78;;;;;;;;;;5030953;28;20045;-59
2022/10/11 12:35:13;;;;;;;17.63;4.17;;;;;;;;;;5032204;28;20429;-59
2022/10/11 12:37:38;;;;;;;17.10;3.55;;;;;;;;;;5030511;28;20044;-60
2022/10/11 12:40:23;;;;;;;11.82;4.38;;;;;;;;;;5032302;28;20021;-59
2022/10/11 12:43:07;;;;;;;8.60;3.75;;;;;;;;;;5030016;28;20044;-59
2022/10/11 12:45:33;;;;;;;27.52;5.18;;;;;;;;;;5032045;28;20025;-59
2022/10/11 12:48:09;;;;;;;11.30;3.15;;;;;;;;;;5030544;28;20040;-60
2022/10/11 12:50:43;;;;;;;11.43;2.97;;;;;;;;;;5031676;28;20036;-60
2022/10/11 12:53:23;;;;;;;20.95;8.10;;;;;;;;;;5030039;28;20037;-59
2022/10/11 12:56:00;;;;;;;11.82;4.75;;;;;;;;;;5031635;28;20028;-60
2022/10/11 12:58:26;;;;;;;9.63;4.03;;;;;;;;;;5029871;28;20103;-59
2022/10/11 13:00:51;;;;;;;10.65;3.50;;;;;;;;;;5031811;28;20623;-59
2022/10/11 13:03:25;;;;;;;12.93;3.90;;;;;;;;;;5030186;28;20500;-60
2022/10/11 13:05:55;;;;;;;10.35;2.45;;;;;;;;;;5031572;28;20630;-59
2022/10/11 13:08:24;;;;;;;13.23;4.25;;;;;;;;;;5030115;28;20076;-59
2022/10/11 13:10:50;;;;;;;15.10;4.78;;;;;;;;;;5032005;28;20079;-59
2022/10/11 13:13:23;;;;;;;9.45;3.40;;;;;;;;;;5029772;28;20097;-59
2022/10/11 13:15:51;;;;;;;11.77;3.38;;;;;;;;;;5031500;28;20515;-60
2022/10/11 13:18:16;;;;;;;10.65;2.80;;;;;;;;;;5029797;28;20037;-59
2022/10/11 13:20:42;;;;;;;11.27;3.58;;;;;;;;;;5031196;28;20045;-59
2022/10/11 13:23:21;;;;;;;11.10;3.17;;;;;;;;;;5029441;28;20524;-59
2022/10/11 13:25:47;;;;;;;15.48;3.22;;;;;;;;;;5037168;28;20036;-59
2022/10/11 13:28:13;;;;;;;15.57;4.40;;;;;;;;;;5051560;28;20065;-59
2022/10/11 13:30:41;;;;;;;10.95;3.92;;;;;;;;;;5042296;28;20440;-60
2022/10/11 13:33:12;;;;;;;7.73;2.27;;;;;;;;;;5035870;28;20381;-60
2022/10/11 13:35:37;;;;;;;12.52;3.15;;;;;;;;;;5030079;28;20025;-60
2022/10/11 13:38:06;;;;;;;8.48;2.72;;;;;;;;;;5030141;28;20043;-60
2022/10/11 13:40:31;;;;;;;9.70;2.47;;;;;;;;;;5030175;28;20021;-59
2022/10/11 13:42:58;;;;;;;5.03;3.17;;;;;;;;;;5029531;28;20030;-60
2022/10/11 13:45:24;;;;;;;32.88;5.80;;;;;;;;;;5030208;28;20025;-60
2022/10/11 13:47:51;;;;;;;12.35;3.47;;;;;;;;;;5028118;28;20033;-60
2022/10/11 13:50:16;;;;;;;15.90;3.92;;;;;;;;;;5030371;28;20053;-60
2022/10/11 13:53:00;;;;;;;10.37;2.40;;;;;;;;;;5029639;28;20056;-60
2022/10/11 13:55:25;;;;;;;14.13;4.40;;;;;;;;;;5030181;28;20864;-60
2022/10/11 13:57:51;;;;;;;11.20;3.90;;;;;;;;;;5029125;28;20117;-60
2022/10/11 14:00:16;;;;;;;15.23;4.55;;;;;;;;;;5030964;28;20455;-60
2022/10/11 14:02:51;;;;;;;16.60;3.63;;;;;;;;;;5029511;28;20484;-60
2022/10/11 14:05:21;;;;;;;9.85;3.17;;;;;;;;;;5030488;28;20053;-60
2022/10/11 14:07:46;;;;;;;13.30;3.40;;;;;;;;;;5029680;28;20415;-60
2022/10/11 14:10:18;;;;;;;11.95;3.28;;;;;;;;;;5030579;28;20021;-60
2022/10/11 14:12:55;;;;;;;6.38;2.90;;;;;;;;;;5028916;28;20049;-60
2022/10/11 14:15:25;;;;;;;19.02;5.82;;;;;;;;;;5030651;28;20585;-60
2022/10/11 14:17:50;;;;;;;6.35;3.05;;;;;;;;;;5029305;28;20041;-60
2022/10/11 14:20:22;;;;;;;12.20;4.87;;;;;;;;;;5029994;28;20372;-60
2022/10/11 14:22:51;;;;;;;7.60;2.45;;;;;;;;;;5029160;28;20517;-60
2022/10/11 14:25:17;;;;;;;7.03;2.22;;;;;;;;;;5030723;28;20033;-60
2022/10/11 14:27:42;;;;;;;8.70;2.42;;;;;;;;;;5029076;28;20063;-60
2022/10/11 14:30:18;;;;;;;15.77;4.10;;;;;;;;;;5030812;28;20052;-60
2022/10/11 14:32:44;;;;;;;15.07;4.07;;;;;;;;;;5029268;28;20061;-60